Terminal Aerodrome Forecast
Issued by NWS

Home | Current Version | Previous Version | Text Only | Print | Product List | Glossary On
Versions: 1 2 3 4 5 6 7 8 9 10 11 12 13 14 15 16 17 18 19 20 21 22 23 24 25 26 27 28 29 30 31 32 33 34 35
000
FTUS41 KOKX 201700
TAFGON
TAF
KGON 201734Z 2018/2118 22010KT P6SM FEW030 BKN150
     FM210000 20006KT P6SM FEW035 BKN150
     FM210500 19005KT P6SM -RA SCT025 BKN035 BKN120
     FM210900 14004KT 6SM -RA BKN025 OVC035=

USA.gov is the U.S. government's official web portal to all federal, state and local government web resources and services.